sensor_id;sensor_type;location;lat;lon;timestamp;P1;durP1;ratioP1;P2;durP2;ratioP2
74995;SDS011;63545;51.690;5.202;2022-11-13T00:03:33;39.13;;;24.67;;
74995;SDS011;63545;51.690;5.202;2022-11-13T00:06:01;39.60;;;25.17;;
74995;SDS011;63545;51.690;5.202;2022-11-13T00:08:27;41.45;;;26.02;;
74995;SDS011;63545;51.690;5.202;2022-11-13T00:10:58;36.97;;;23.33;;
74995;SDS011;63545;51.690;5.202;2022-11-13T00:13:24;40.10;;;24.20;;
74995;SDS011;63545;51.690;5.202;2022-11-13T00:15:59;39.43;;;24.70;;
74995;SDS011;63545;51.690;5.202;2022-11-13T00:18:26;38.70;;;23.67;;
74995;SDS011;63545;51.690;5.202;2022-11-13T00:20:52;37.85;;;22.17;;
74995;SDS011;63545;51.690;5.202;2022-11-13T00:23:17;36.83;;;22.97;;
74995;SDS011;63545;51.690;5.202;2022-11-13T00:25:42;34.77;;;21.77;;
74995;SDS011;63545;51.690;5.202;2022-11-13T00:28:08;35.80;;;21.33;;
74995;SDS011;63545;51.690;5.202;2022-11-13T00:30:33;34.27;;;20.03;;
74995;SDS011;63545;51.690;5.202;2022-11-13T00:32:58;30.60;;;19.80;;
74995;SDS011;63545;51.690;5.202;2022-11-13T00:35:23;32.57;;;18.90;;
74995;SDS011;63545;51.690;5.202;2022-11-13T00:37:49;28.73;;;18.57;;
74995;SDS011;63545;51.690;5.202;2022-11-13T00:40:14;30.30;;;19.30;;
74995;SDS011;63545;51.690;5.202;2022-11-13T00:42:40;29.07;;;19.67;;
74995;SDS011;63545;51.690;5.202;2022-11-13T00:45:05;32.77;;;19.80;;
74995;SDS011;63545;51.690;5.202;2022-11-13T00:47:33;31.00;;;19.02;;
74995;SDS011;63545;51.690;5.202;2022-11-13T00:49:58;28.30;;;17.97;;
74995;SDS011;63545;51.690;5.202;2022-11-13T00:52:23;27.57;;;17.73;;
74995;SDS011;63545;51.690;5.202;2022-11-13T00:54:49;25.57;;;16.37;;
74995;SDS011;63545;51.690;5.202;2022-11-13T00:57:14;27.43;;;16.20;;
74995;SDS011;63545;51.690;5.202;2022-11-13T00:59:39;32.57;;;17.93;;
74995;SDS011;63545;51.690;5.202;2022-11-13T01:02:05;28.17;;;17.90;;
74995;SDS011;63545;51.690;5.202;2022-11-13T01:04:30;28.23;;;16.33;;
74995;SDS011;63545;51.690;5.202;2022-11-13T01:06:56;29.65;;;16.33;;
74995;SDS011;63545;51.690;5.202;2022-11-13T01:09:21;26.67;;;16.67;;
74995;SDS011;63545;51.690;5.202;2022-11-13T01:11:46;28.70;;;16.10;;
74995;SDS011;63545;51.690;5.202;2022-11-13T01:14:12;26.20;;;16.43;;
74995;SDS011;63545;51.690;5.202;2022-11-13T01:16:37;25.47;;;16.40;;
74995;SDS011;63545;51.690;5.202;2022-11-13T01:19:02;26.33;;;15.37;;
74995;SDS011;63545;51.690;5.202;2022-11-13T01:21:28;24.57;;;15.23;;
74995;SDS011;63545;51.690;5.202;2022-11-13T01:23:53;22.67;;;14.02;;
74995;SDS011;63545;51.690;5.202;2022-11-13T01:26:21;21.83;;;14.83;;
74995;SDS011;63545;51.690;5.202;2022-11-13T01:28:51;23.77;;;15.15;;
74995;SDS011;63545;51.690;5.202;2022-11-13T01:31:19;25.90;;;14.57;;
74995;SDS011;63545;51.690;5.202;2022-11-13T01:33:46;22.90;;;15.48;;
74995;SDS011;63545;51.690;5.202;2022-11-13T01:36:13;24.85;;;15.05;;
74995;SDS011;63545;51.690;5.202;2022-11-13T01:38:40;25.53;;;15.40;;
74995;SDS011;63545;51.690;5.202;2022-11-13T01:41:06;23.50;;;15.85;;
74995;SDS011;63545;51.690;5.202;2022-11-13T01:43:34;21.17;;;14.52;;
74995;SDS011;63545;51.690;5.202;2022-11-13T01:46:04;24.27;;;14.07;;
74995;SDS011;63545;51.690;5.202;2022-11-13T01:48:35;24.02;;;14.52;;
74995;SDS011;63545;51.690;5.202;2022-11-13T01:51:04;19.38;;;14.30;;
74995;SDS011;63545;51.690;5.202;2022-11-13T01:53:33;20.88;;;13.98;;
74995;SDS011;63545;51.690;5.202;2022-11-13T01:56:00;21.85;;;14.45;;
74995;SDS011;63545;51.690;5.202;2022-11-13T01:58:25;23.37;;;14.17;;
74995;SDS011;63545;51.690;5.202;2022-11-13T02:00:51;23.00;;;14.00;;
74995;SDS011;63545;51.690;5.202;2022-11-13T02:03:16;22.90;;;14.15;;
74995;SDS011;63545;51.690;5.202;2022-11-13T02:05:42;22.07;;;13.90;;
74995;SDS011;63545;51.690;5.202;2022-11-13T02:08:07;20.83;;;14.03;;
74995;SDS011;63545;51.690;5.202;2022-11-13T02:10:32;22.60;;;14.23;;
74995;SDS011;63545;51.690;5.202;2022-11-13T02:12:58;21.07;;;13.73;;
74995;SDS011;63545;51.690;5.202;2022-11-13T02:15:24;21.53;;;13.83;;
74995;SDS011;63545;51.690;5.202;2022-11-13T02:17:52;19.55;;;13.40;;
74995;SDS011;63545;51.690;5.202;2022-11-13T02:20:20;21.27;;;12.93;;
74995;SDS011;63545;51.690;5.202;2022-11-13T02:25:43;23.10;;;12.93;;
74995;SDS011;63545;51.690;5.202;2022-11-13T02:28:10;20.20;;;13.05;;
74995;SDS011;63545;51.690;5.202;2022-11-13T02:30:35;20.55;;;12.30;;
74995;SDS011;63545;51.690;5.202;2022-11-13T02:33:00;21.07;;;13.47;;
74995;SDS011;63545;51.690;5.202;2022-11-13T02:35:28;24.10;;;13.47;;
74995;SDS011;63545;51.690;5.202;2022-11-13T02:37:57;20.30;;;12.30;;
74995;SDS011;63545;51.690;5.202;2022-11-13T02:40:23;19.17;;;12.63;;
74995;SDS011;63545;51.690;5.202;2022-11-13T02:42:49;20.03;;;13.27;;
74995;SDS011;63545;51.690;5.202;2022-11-13T02:45:14;18.57;;;12.23;;
74995;SDS011;63545;51.690;5.202;2022-11-13T02:47:40;24.17;;;13.23;;
74995;SDS011;63545;51.690;5.202;2022-11-13T02:50:05;19.63;;;13.23;;
74995;SDS011;63545;51.690;5.202;2022-11-13T02:52:32;22.83;;;12.82;;
74995;SDS011;63545;51.690;5.202;2022-11-13T02:54:57;23.10;;;13.33;;
74995;SDS011;63545;51.690;5.202;2022-11-13T02:57:22;19.60;;;12.77;;
74995;SDS011;63545;51.690;5.202;2022-11-13T02:59:48;21.33;;;13.07;;
74995;SDS011;63545;51.690;5.202;2022-11-13T03:02:13;20.07;;;12.97;;
74995;SDS011;63545;51.690;5.202;2022-11-13T03:04:38;20.63;;;13.43;;
74995;SDS011;63545;51.690;5.202;2022-11-13T03:07:04;20.30;;;13.73;;
74995;SDS011;63545;51.690;5.202;2022-11-13T03:09:29;22.80;;;13.57;;
74995;SDS011;63545;51.690;5.202;2022-11-13T03:11:54;21.20;;;12.83;;
74995;SDS011;63545;51.690;5.202;2022-11-13T03:14:20;18.77;;;12.47;;
74995;SDS011;63545;51.690;5.202;2022-11-13T03:16:45;22.67;;;12.23;;
74995;SDS011;63545;51.690;5.202;2022-11-13T03:19:11;20.57;;;12.70;;
74995;SDS011;63545;51.690;5.202;2022-11-13T03:21:36;25.80;;;12.63;;
74995;SDS011;63545;51.690;5.202;2022-11-13T03:24:01;19.08;;;12.20;;
74995;SDS011;63545;51.690;5.202;2022-11-13T03:26:27;18.67;;;12.60;;
74995;SDS011;63545;51.690;5.202;2022-11-13T03:28:52;17.93;;;12.30;;
74995;SDS011;63545;51.690;5.202;2022-11-13T03:31:18;19.17;;;12.30;;
74995;SDS011;63545;51.690;5.202;2022-11-13T03:33:43;17.63;;;11.93;;
74995;SDS011;63545;51.690;5.202;2022-11-13T03:36:09;18.97;;;11.63;;
74995;SDS011;63545;51.690;5.202;2022-11-13T03:38:34;17.20;;;11.23;;
74995;SDS011;63545;51.690;5.202;2022-11-13T03:40:59;14.73;;;10.77;;
74995;SDS011;63545;51.690;5.202;2022-11-13T03:43:25;19.40;;;11.33;;
74995;SDS011;63545;51.690;5.202;2022-11-13T03:45:50;20.48;;;11.85;;
74995;SDS011;63545;51.690;5.202;2022-11-13T03:48:16;18.30;;;11.53;;
74995;SDS011;63545;51.690;5.202;2022-11-13T03:50:42;20.27;;;11.67;;
74995;SDS011;63545;51.690;5.202;2022-11-13T03:53:08;18.00;;;10.98;;
74995;SDS011;63545;51.690;5.202;2022-11-13T03:55:34;19.47;;;11.00;;
74995;SDS011;63545;51.690;5.202;2022-11-13T03:57:59;16.23;;;10.82;;
74995;SDS011;63545;51.690;5.202;2022-11-13T04:00:24;17.33;;;11.60;;
74995;SDS011;63545;51.690;5.202;2022-11-13T04:02:50;15.83;;;10.37;;
74995;SDS011;63545;51.690;5.202;2022-11-13T04:05:15;14.27;;;10.60;;
74995;SDS011;63545;51.690;5.202;2022-11-13T04:07:40;14.17;;;9.90;;
74995;SDS011;63545;51.690;5.202;2022-11-13T04:10:06;14.90;;;10.03;;
74995;SDS011;63545;51.690;5.202;2022-11-13T04:12:31;16.50;;;10.82;;
74995;SDS011;63545;51.690;5.202;2022-11-13T04:14:57;14.60;;;10.17;;
74995;SDS011;63545;51.690;5.202;2022-11-13T04:17:22;16.60;;;10.10;;
74995;SDS011;63545;51.690;5.202;2022-11-13T04:19:47;15.47;;;10.50;;
74995;SDS011;63545;51.690;5.202;2022-11-13T04:22:13;16.80;;;11.03;;
74995;SDS011;63545;51.690;5.202;2022-11-13T04:24:38;15.83;;;10.47;;
74995;SDS011;63545;51.690;5.202;2022-11-13T04:27:03;19.43;;;10.03;;
74995;SDS011;63545;51.690;5.202;2022-11-13T04:29:29;16.20;;;10.40;;
74995;SDS011;63545;51.690;5.202;2022-11-13T04:31:54;16.73;;;9.17;;
74995;SDS011;63545;51.690;5.202;2022-11-13T04:34:19;17.23;;;9.97;;
74995;SDS011;63545;51.690;5.202;2022-11-13T04:36:45;16.30;;;10.37;;
74995;SDS011;63545;51.690;5.202;2022-11-13T04:39:10;13.43;;;9.63;;
74995;SDS011;63545;51.690;5.202;2022-11-13T04:41:35;19.20;;;10.20;;
74995;SDS011;63545;51.690;5.202;2022-11-13T04:44:19;14.75;;;9.32;;
74995;SDS011;63545;51.690;5.202;2022-11-13T04:46:44;13.87;;;9.87;;
74995;SDS011;63545;51.690;5.202;2022-11-13T04:49:09;13.33;;;9.40;;
74995;SDS011;63545;51.690;5.202;2022-11-13T04:51:35;13.17;;;8.80;;
74995;SDS011;63545;51.690;5.202;2022-11-13T04:54:00;15.60;;;9.50;;
74995;SDS011;63545;51.690;5.202;2022-11-13T04:56:25;12.40;;;8.93;;
74995;SDS011;63545;51.690;5.202;2022-11-13T04:58:51;14.52;;;9.13;;
74995;SDS011;63545;51.690;5.202;2022-11-13T05:01:16;13.10;;;9.00;;
74995;SDS011;63545;51.690;5.202;2022-11-13T05:03:42;19.07;;;9.67;;
74995;SDS011;63545;51.690;5.202;2022-11-13T05:06:08;15.30;;;9.10;;
74995;SDS011;63545;51.690;5.202;2022-11-13T05:08:34;13.98;;;9.25;;
74995;SDS011;63545;51.690;5.202;2022-11-13T05:10:59;18.13;;;9.43;;
74995;SDS011;63545;51.690;5.202;2022-11-13T05:13:25;14.02;;;9.70;;
74995;SDS011;63545;51.690;5.202;2022-11-13T05:15:58;12.50;;;9.00;;
74995;SDS011;63545;51.690;5.202;2022-11-13T05:18:27;13.95;;;9.20;;
74995;SDS011;63545;51.690;5.202;2022-11-13T05:20:52;14.33;;;9.53;;
74995;SDS011;63545;51.690;5.202;2022-11-13T05:23:18;13.97;;;9.07;;
74995;SDS011;63545;51.690;5.202;2022-11-13T05:25:43;13.17;;;9.37;;
74995;SDS011;63545;51.690;5.202;2022-11-13T05:28:08;12.27;;;9.10;;
74995;SDS011;63545;51.690;5.202;2022-11-13T05:30:34;13.00;;;9.17;;
74995;SDS011;63545;51.690;5.202;2022-11-13T05:32:59;13.17;;;9.20;;
74995;SDS011;63545;51.690;5.202;2022-11-13T05:35:24;12.70;;;9.30;;
74995;SDS011;63545;51.690;5.202;2022-11-13T05:37:49;13.20;;;9.57;;
74995;SDS011;63545;51.690;5.202;2022-11-13T05:40:15;15.17;;;9.47;;
74995;SDS011;63545;51.690;5.202;2022-11-13T05:42:40;13.83;;;10.03;;
74995;SDS011;63545;51.690;5.202;2022-11-13T05:45:06;15.17;;;10.00;;
74995;SDS011;63545;51.690;5.202;2022-11-13T05:47:32;16.88;;;9.77;;
74995;SDS011;63545;51.690;5.202;2022-11-13T05:49:57;14.43;;;9.23;;
74995;SDS011;63545;51.690;5.202;2022-11-13T05:52:22;12.60;;;9.40;;
74995;SDS011;63545;51.690;5.202;2022-11-13T05:54:48;12.88;;;8.95;;
74995;SDS011;63545;51.690;5.202;2022-11-13T05:57:13;14.67;;;9.73;;
74995;SDS011;63545;51.690;5.202;2022-11-13T05:59:38;13.07;;;9.03;;
74995;SDS011;63545;51.690;5.202;2022-11-13T06:02:04;14.30;;;9.43;;
74995;SDS011;63545;51.690;5.202;2022-11-13T06:04:29;17.07;;;9.97;;
74995;SDS011;63545;51.690;5.202;2022-11-13T06:06:54;16.67;;;10.63;;
74995;SDS011;63545;51.690;5.202;2022-11-13T06:09:20;14.47;;;9.87;;
74995;SDS011;63545;51.690;5.202;2022-11-13T06:11:45;19.80;;;9.75;;
74995;SDS011;63545;51.690;5.202;2022-11-13T06:14:10;15.57;;;9.43;;
74995;SDS011;63545;51.690;5.202;2022-11-13T06:16:36;14.67;;;9.73;;
74995;SDS011;63545;51.690;5.202;2022-11-13T06:19:03;15.25;;;10.00;;
74995;SDS011;63545;51.690;5.202;2022-11-13T06:21:32;13.73;;;9.43;;
74995;SDS011;63545;51.690;5.202;2022-11-13T06:23:58;14.50;;;9.87;;
74995;SDS011;63545;51.690;5.202;2022-11-13T06:26:26;16.05;;;10.05;;
74995;SDS011;63545;51.690;5.202;2022-11-13T06:28:52;17.08;;;10.70;;
74995;SDS011;63545;51.690;5.202;2022-11-13T06:31:22;15.73;;;10.43;;
74995;SDS011;63545;51.690;5.202;2022-11-13T06:33:52;15.93;;;10.00;;
74995;SDS011;63545;51.690;5.202;2022-11-13T06:36:18;15.93;;;11.10;;
74995;SDS011;63545;51.690;5.202;2022-11-13T06:38:47;14.95;;;10.50;;
74995;SDS011;63545;51.690;5.202;2022-11-13T06:41:15;16.83;;;10.85;;
74995;SDS011;63545;51.690;5.202;2022-11-13T06:43:42;19.40;;;11.10;;
74995;SDS011;63545;51.690;5.202;2022-11-13T06:46:12;16.40;;;10.50;;
74995;SDS011;63545;51.690;5.202;2022-11-13T06:48:39;15.10;;;10.82;;
74995;SDS011;63545;51.690;5.202;2022-11-13T06:51:05;16.37;;;10.70;;
74995;SDS011;63545;51.690;5.202;2022-11-13T06:53:31;15.70;;;10.68;;
74995;SDS011;63545;51.690;5.202;2022-11-13T06:55:57;15.23;;;10.45;;
74995;SDS011;63545;51.690;5.202;2022-11-13T06:58:23;20.47;;;11.63;;
74995;SDS011;63545;51.690;5.202;2022-11-13T07:00:48;17.13;;;10.60;;
74995;SDS011;63545;51.690;5.202;2022-11-13T07:03:15;15.85;;;10.57;;
74995;SDS011;63545;51.690;5.202;2022-11-13T07:05:41;17.73;;;10.15;;
74995;SDS011;63545;51.690;5.202;2022-11-13T07:08:06;15.57;;;10.00;;
74995;SDS011;63545;51.690;5.202;2022-11-13T07:10:32;15.90;;;9.93;;
74995;SDS011;63545;51.690;5.202;2022-11-13T07:12:57;15.57;;;10.20;;
74995;SDS011;63545;51.690;5.202;2022-11-13T07:15:24;16.42;;;10.10;;
74995;SDS011;63545;51.690;5.202;2022-11-13T07:17:49;16.00;;;10.83;;
74995;SDS011;63545;51.690;5.202;2022-11-13T07:20:14;17.80;;;10.30;;
74995;SDS011;63545;51.690;5.202;2022-11-13T07:22:40;14.67;;;9.93;;
74995;SDS011;63545;51.690;5.202;2022-11-13T07:25:05;14.90;;;10.10;;
74995;SDS011;63545;51.690;5.202;2022-11-13T07:27:31;14.40;;;9.57;;
74995;SDS011;63545;51.690;5.202;2022-11-13T07:29:56;15.77;;;10.00;;
74995;SDS011;63545;51.690;5.202;2022-11-13T07:32:22;16.80;;;10.50;;
74995;SDS011;63545;51.690;5.202;2022-11-13T07:34:47;15.77;;;9.47;;
74995;SDS011;63545;51.690;5.202;2022-11-13T07:37:12;13.45;;;10.20;;
74995;SDS011;63545;51.690;5.202;2022-11-13T07:39:38;16.93;;;9.93;;
74995;SDS011;63545;51.690;5.202;2022-11-13T07:42:03;14.27;;;9.90;;
74995;SDS011;63545;51.690;5.202;2022-11-13T07:44:28;14.30;;;9.83;;
74995;SDS011;63545;51.690;5.202;2022-11-13T07:46:54;15.73;;;9.90;;
74995;SDS011;63545;51.690;5.202;2022-11-13T07:49:19;17.37;;;10.20;;
74995;SDS011;63545;51.690;5.202;2022-11-13T07:51:44;15.17;;;9.80;;
74995;SDS011;63545;51.690;5.202;2022-11-13T07:54:09;16.53;;;10.47;;
74995;SDS011;63545;51.690;5.202;2022-11-13T07:56:35;13.07;;;9.85;;
74995;SDS011;63545;51.690;5.202;2022-11-13T07:59:00;13.63;;;9.50;;
74995;SDS011;63545;51.690;5.202;2022-11-13T08:01:25;15.20;;;10.17;;
74995;SDS011;63545;51.690;5.202;2022-11-13T08:03:51;15.70;;;10.17;;
74995;SDS011;63545;51.690;5.202;2022-11-13T08:06:16;16.50;;;10.17;;
74995;SDS011;63545;51.690;5.202;2022-11-13T08:08:41;18.73;;;10.30;;
74995;SDS011;63545;51.690;5.202;2022-11-13T08:11:07;12.37;;;9.60;;
74995;SDS011;63545;51.690;5.202;2022-11-13T08:13:33;15.23;;;9.88;;
74995;SDS011;63545;51.690;5.202;2022-11-13T08:16:00;14.13;;;10.05;;
74995;SDS011;63545;51.690;5.202;2022-11-13T08:18:26;14.95;;;10.18;;
74995;SDS011;63545;51.690;5.202;2022-11-13T08:20:52;13.67;;;9.47;;
74995;SDS011;63545;51.690;5.202;2022-11-13T08:23:17;13.82;;;9.68;;
74995;SDS011;63545;51.690;5.202;2022-11-13T08:25:43;16.40;;;10.33;;
74995;SDS011;63545;51.690;5.202;2022-11-13T08:28:08;14.03;;;10.10;;
74995;SDS011;63545;51.690;5.202;2022-11-13T08:30:33;16.57;;;10.23;;
74995;SDS011;63545;51.690;5.202;2022-11-13T08:32:59;15.00;;;10.33;;
74995;SDS011;63545;51.690;5.202;2022-11-13T08:35:24;14.50;;;10.50;;
74995;SDS011;63545;51.690;5.202;2022-11-13T08:37:49;18.10;;;10.37;;
74995;SDS011;63545;51.690;5.202;2022-11-13T08:40:15;13.93;;;10.05;;
74995;SDS011;63545;51.690;5.202;2022-11-13T08:42:40;13.20;;;10.00;;
74995;SDS011;63545;51.690;5.202;2022-11-13T08:45:06;18.33;;;10.70;;
74995;SDS011;63545;51.690;5.202;2022-11-13T08:47:32;14.20;;;10.30;;
74995;SDS011;63545;51.690;5.202;2022-11-13T08:49:57;14.90;;;10.27;;
74995;SDS011;63545;51.690;5.202;2022-11-13T08:52:22;13.87;;;9.87;;
74995;SDS011;63545;51.690;5.202;2022-11-13T08:54:48;15.33;;;9.77;;
74995;SDS011;63545;51.690;5.202;2022-11-13T08:57:13;20.83;;;10.63;;
74995;SDS011;63545;51.690;5.202;2022-11-13T08:59:38;13.80;;;10.20;;
74995;SDS011;63545;51.690;5.202;2022-11-13T09:02:04;13.67;;;10.10;;
74995;SDS011;63545;51.690;5.202;2022-11-13T09:04:29;15.20;;;10.32;;
74995;SDS011;63545;51.690;5.202;2022-11-13T09:06:55;14.40;;;10.70;;
74995;SDS011;63545;51.690;5.202;2022-11-13T09:09:20;16.47;;;10.33;;
74995;SDS011;63545;51.690;5.202;2022-11-13T09:11:46;16.58;;;10.40;;
74995;SDS011;63545;51.690;5.202;2022-11-13T09:14:12;14.47;;;10.10;;
74995;SDS011;63545;51.690;5.202;2022-11-13T09:16:37;15.97;;;9.97;;
74995;SDS011;63545;51.690;5.202;2022-11-13T09:19:03;13.35;;;9.95;;
74995;SDS011;63545;51.690;5.202;2022-11-13T09:21:28;14.50;;;10.50;;
74995;SDS011;63545;51.690;5.202;2022-11-13T09:23:54;14.27;;;10.50;;
74995;SDS011;63545;51.690;5.202;2022-11-13T09:26:19;12.50;;;9.33;;
74995;SDS011;63545;51.690;5.202;2022-11-13T09:28:44;14.17;;;9.77;;
74995;SDS011;63545;51.690;5.202;2022-11-13T09:31:10;13.40;;;10.20;;
74995;SDS011;63545;51.690;5.202;2022-11-13T09:33:35;17.07;;;10.00;;
74995;SDS011;63545;51.690;5.202;2022-11-13T09:36:01;14.13;;;10.47;;
74995;SDS011;63545;51.690;5.202;2022-11-13T09:38:26;17.70;;;10.77;;
74995;SDS011;63545;51.690;5.202;2022-11-13T09:43:37;13.27;;;9.73;;
74995;SDS011;63545;51.690;5.202;2022-11-13T09:46:16;14.73;;;10.32;;
74995;SDS011;63545;51.690;5.202;2022-11-13T09:48:56;13.48;;;9.40;;
74995;SDS011;63545;51.690;5.202;2022-11-13T09:51:25;12.85;;;10.00;;
74995;SDS011;63545;51.690;5.202;2022-11-13T09:53:52;13.80;;;9.80;;
74995;SDS011;63545;51.690;5.202;2022-11-13T10:01:43;15.60;;;9.87;;
74995;SDS011;63545;51.690;5.202;2022-11-13T10:04:14;13.90;;;10.15;;
74995;SDS011;63545;51.690;5.202;2022-11-13T10:07:10;13.85;;;10.00;;
74995;SDS011;63545;51.690;5.202;2022-11-13T10:12:26;16.10;;;10.27;;
74995;SDS011;63545;51.690;5.202;2022-11-13T10:14:55;12.30;;;9.50;;
74995;SDS011;63545;51.690;5.202;2022-11-13T10:20:12;11.90;;;9.48;;
74995;SDS011;63545;51.690;5.202;2022-11-13T10:25:15;13.50;;;9.68;;
74995;SDS011;63545;51.690;5.202;2022-11-13T10:27:48;11.70;;;9.43;;
74995;SDS011;63545;51.690;5.202;2022-11-13T10:30:18;13.23;;;9.23;;
74995;SDS011;63545;51.690;5.202;2022-11-13T10:32:43;13.82;;;8.77;;
74995;SDS011;63545;51.690;5.202;2022-11-13T10:38:03;13.63;;;9.63;;
74995;SDS011;63545;51.690;5.202;2022-11-13T10:40:34;12.23;;;9.30;;
74995;SDS011;63545;51.690;5.202;2022-11-13T10:43:05;13.27;;;9.73;;
74995;SDS011;63545;51.690;5.202;2022-11-13T10:45:39;13.52;;;9.30;;
74995;SDS011;63545;51.690;5.202;2022-11-13T10:48:28;12.20;;;8.97;;
74995;SDS011;63545;51.690;5.202;2022-11-13T10:50:58;12.35;;;9.10;;
74995;SDS011;63545;51.690;5.202;2022-11-13T10:53:44;12.57;;;8.90;;
74995;SDS011;63545;51.690;5.202;2022-11-13T10:56:20;12.00;;;9.07;;
74995;SDS011;63545;51.690;5.202;2022-11-13T10:59:15;11.63;;;9.00;;
74995;SDS011;63545;51.690;5.202;2022-11-13T11:01:43;11.65;;;8.57;;
74995;SDS011;63545;51.690;5.202;2022-11-13T11:04:18;11.35;;;8.82;;
74995;SDS011;63545;51.690;5.202;2022-11-13T11:06:48;10.35;;;8.65;;
74995;SDS011;63545;51.690;5.202;2022-11-13T11:12:08;12.98;;;8.95;;
74995;SDS011;63545;51.690;5.202;2022-11-13T11:17:26;11.68;;;7.68;;
74995;SDS011;63545;51.690;5.202;2022-11-13T11:20:00;10.27;;;8.02;;
74995;SDS011;63545;51.690;5.202;2022-11-13T11:22:31;10.07;;;7.67;;
74995;SDS011;63545;51.690;5.202;2022-11-13T11:25:04;10.68;;;7.65;;
74995;SDS011;63545;51.690;5.202;2022-11-13T11:27:53;8.80;;;6.97;;
74995;SDS011;63545;51.690;5.202;2022-11-13T11:30:23;10.25;;;7.07;;
74995;SDS011;63545;51.690;5.202;2022-11-13T11:35:43;8.00;;;6.60;;
74995;SDS011;63545;51.690;5.202;2022-11-13T11:38:30;9.82;;;6.68;;
74995;SDS011;63545;51.690;5.202;2022-11-13T11:41:01;10.15;;;6.38;;
74995;SDS011;63545;51.690;5.202;2022-11-13T11:43:33;8.52;;;6.93;;
74995;SDS011;63545;51.690;5.202;2022-11-13T11:46:03;9.40;;;7.03;;
74995;SDS011;63545;51.690;5.202;2022-11-13T11:48:29;9.07;;;7.40;;
74995;SDS011;63545;51.690;5.202;2022-11-13T11:56:43;8.23;;;6.60;;
74995;SDS011;63545;51.690;5.202;2022-11-13T12:05:20;9.50;;;7.50;;
74995;SDS011;63545;51.690;5.202;2022-11-13T12:08:06;10.05;;;7.80;;
74995;SDS011;63545;51.690;5.202;2022-11-13T12:10:39;8.97;;;7.10;;
74995;SDS011;63545;51.690;5.202;2022-11-13T12:13:27;8.98;;;7.20;;
74995;SDS011;63545;51.690;5.202;2022-11-13T12:16:12;8.90;;;7.43;;
74995;SDS011;63545;51.690;5.202;2022-11-13T12:18:53;8.88;;;7.35;;
74995;SDS011;63545;51.690;5.202;2022-11-13T12:21:47;9.50;;;7.80;;
74995;SDS011;63545;51.690;5.202;2022-11-13T12:34:59;12.55;;;7.97;;
74995;SDS011;63545;51.690;5.202;2022-11-13T12:40:13;10.10;;;7.68;;
74995;SDS011;63545;51.690;5.202;2022-11-13T12:42:46;9.55;;;8.05;;
74995;SDS011;63545;51.690;5.202;2022-11-13T12:45:19;10.35;;;8.20;;
74995;SDS011;63545;51.690;5.202;2022-11-13T12:51:02;11.53;;;8.43;;
74995;SDS011;63545;51.690;5.202;2022-11-13T12:53:29;10.90;;;7.90;;
74995;SDS011;63545;51.690;5.202;2022-11-13T12:56:07;10.07;;;8.18;;
74995;SDS011;63545;51.690;5.202;2022-11-13T12:58:38;9.95;;;8.38;;
74995;SDS011;63545;51.690;5.202;2022-11-13T13:03:39;9.38;;;8.38;;
74995;SDS011;63545;51.690;5.202;2022-11-13T13:06:27;10.63;;;7.90;;
74995;SDS011;63545;51.690;5.202;2022-11-13T13:11:45;10.88;;;8.23;;
74995;SDS011;63545;51.690;5.202;2022-11-13T13:16:49;17.60;;;13.93;;
74995;SDS011;63545;51.690;5.202;2022-11-13T13:21:56;13.35;;;9.80;;
74995;SDS011;63545;51.690;5.202;2022-11-13T13:24:32;24.20;;;15.87;;
74995;SDS011;63545;51.690;5.202;2022-11-13T13:26:59;15.75;;;11.85;;
74995;SDS011;63545;51.690;5.202;2022-11-13T13:29:25;24.67;;;14.45;;
74995;SDS011;63545;51.690;5.202;2022-11-13T13:31:53;19.47;;;13.03;;
74995;SDS011;63545;51.690;5.202;2022-11-13T13:36:53;10.10;;;8.70;;
74995;SDS011;63545;51.690;5.202;2022-11-13T13:47:44;12.43;;;8.60;;
74995;SDS011;63545;51.690;5.202;2022-11-13T13:50:21;10.00;;;7.93;;
74995;SDS011;63545;51.690;5.202;2022-11-13T13:52:50;9.27;;;7.38;;
74995;SDS011;63545;51.690;5.202;2022-11-13T13:55:18;8.85;;;6.65;;
74995;SDS011;63545;51.690;5.202;2022-11-13T13:58:07;9.30;;;7.13;;
74995;SDS011;63545;51.690;5.202;2022-11-13T14:00:34;8.98;;;6.78;;
74995;SDS011;63545;51.690;5.202;2022-11-13T14:03:01;8.93;;;7.80;;
74995;SDS011;63545;51.690;5.202;2022-11-13T14:05:31;8.38;;;7.13;;
74995;SDS011;63545;51.690;5.202;2022-11-13T14:07:58;9.60;;;6.20;;
74995;SDS011;63545;51.690;5.202;2022-11-13T14:10:25;7.25;;;6.38;;
74995;SDS011;63545;51.690;5.202;2022-11-13T14:12:52;7.67;;;6.10;;
74995;SDS011;63545;51.690;5.202;2022-11-13T14:17:46;7.63;;;5.25;;
74995;SDS011;63545;51.690;5.202;2022-11-13T14:20:12;38.33;;;20.73;;
74995;SDS011;63545;51.690;5.202;2022-11-13T14:22:37;13.73;;;9.13;;
74995;SDS011;63545;51.690;5.202;2022-11-13T14:25:03;22.27;;;12.07;;
74995;SDS011;63545;51.690;5.202;2022-11-13T14:27:30;14.07;;;8.60;;
74995;SDS011;63545;51.690;5.202;2022-11-13T14:29:56;13.07;;;8.65;;
74995;SDS011;63545;51.690;5.202;2022-11-13T14:32:24;24.63;;;14.40;;
74995;SDS011;63545;51.690;5.202;2022-11-13T14:34:54;15.20;;;10.63;;
74995;SDS011;63545;51.690;5.202;2022-11-13T14:39:52;21.25;;;12.25;;
74995;SDS011;63545;51.690;5.202;2022-11-13T14:44:46;8.65;;;6.47;;
74995;SDS011;63545;51.690;5.202;2022-11-13T14:49:50;15.70;;;10.88;;
74995;SDS011;63545;51.690;5.202;2022-11-13T14:52:23;14.30;;;8.53;;
74995;SDS011;63545;51.690;5.202;2022-11-13T14:54:59;13.35;;;8.52;;
74995;SDS011;63545;51.690;5.202;2022-11-13T14:57:26;10.33;;;6.43;;
74995;SDS011;63545;51.690;5.202;2022-11-13T14:59:51;9.50;;;7.22;;
74995;SDS011;63545;51.690;5.202;2022-11-13T15:02:16;9.53;;;6.83;;
74995;SDS011;63545;51.690;5.202;2022-11-13T15:04:44;10.30;;;6.60;;
74995;SDS011;63545;51.690;5.202;2022-11-13T15:07:26;10.13;;;6.15;;
74995;SDS011;63545;51.690;5.202;2022-11-13T15:09:54;8.68;;;5.70;;
74995;SDS011;63545;51.690;5.202;2022-11-13T15:12:21;7.13;;;5.00;;
74995;SDS011;63545;51.690;5.202;2022-11-13T15:14:46;8.48;;;7.50;;
74995;SDS011;63545;51.690;5.202;2022-11-13T15:17:14;8.33;;;6.90;;
74995;SDS011;63545;51.690;5.202;2022-11-13T15:19:40;12.75;;;8.52;;
74995;SDS011;63545;51.690;5.202;2022-11-13T15:22:12;8.50;;;6.60;;
74995;SDS011;63545;51.690;5.202;2022-11-13T15:24:37;10.40;;;7.30;;
74995;SDS011;63545;51.690;5.202;2022-11-13T15:27:03;8.70;;;6.33;;
74995;SDS011;63545;51.690;5.202;2022-11-13T15:29:29;10.88;;;6.53;;
74995;SDS011;63545;51.690;5.202;2022-11-13T15:31:55;11.47;;;6.73;;
74995;SDS011;63545;51.690;5.202;2022-11-13T15:34:21;11.93;;;6.88;;
74995;SDS011;63545;51.690;5.202;2022-11-13T15:36:46;10.65;;;7.10;;
74995;SDS011;63545;51.690;5.202;2022-11-13T15:39:12;10.67;;;6.90;;
74995;SDS011;63545;51.690;5.202;2022-11-13T15:41:37;9.07;;;6.53;;
74995;SDS011;63545;51.690;5.202;2022-11-13T15:44:10;11.18;;;6.85;;
74995;SDS011;63545;51.690;5.202;2022-11-13T15:46:37;11.50;;;7.20;;
74995;SDS011;63545;51.690;5.202;2022-11-13T15:49:02;10.73;;;7.50;;
74995;SDS011;63545;51.690;5.202;2022-11-13T15:54:32;10.43;;;7.20;;
74995;SDS011;63545;51.690;5.202;2022-11-13T15:56:56;10.27;;;7.10;;
74995;SDS011;63545;51.690;5.202;2022-11-13T15:59:21;10.35;;;7.47;;
74995;SDS011;63545;51.690;5.202;2022-11-13T16:01:47;13.10;;;8.33;;
74995;SDS011;63545;51.690;5.202;2022-11-13T16:04:12;11.37;;;7.83;;
74995;SDS011;63545;51.690;5.202;2022-11-13T16:06:40;10.40;;;7.43;;